sensor_id;sensor_type;location;lat;lon;timestamp;P1;durP1;ratioP1;P2;durP2;ratioP2
42742;SDS011;28397;44.552;-0.848;2024-01-27T00:01:05;15.88;;;11.43;;
42742;SDS011;28397;44.552;-0.848;2024-01-27T00:03:30;16.38;;;14.00;;
42742;SDS011;28397;44.552;-0.848;2024-01-27T00:05:56;19.15;;;15.20;;
42742;SDS011;28397;44.552;-0.848;2024-01-27T00:08:22;16.70;;;14.90;;
42742;SDS011;28397;44.552;-0.848;2024-01-27T00:10:47;18.10;;;16.13;;
42742;SDS011;28397;44.552;-0.848;2024-01-27T00:13:13;16.83;;;15.02;;
42742;SDS011;28397;44.552;-0.848;2024-01-27T00:15:38;19.58;;;16.13;;
42742;SDS011;28397;44.552;-0.848;2024-01-27T00:18:04;17.73;;;15.38;;
42742;SDS011;28397;44.552;-0.848;2024-01-27T00:20:30;17.35;;;15.15;;
42742;SDS011;28397;44.552;-0.848;2024-01-27T00:22:55;16.20;;;13.93;;
42742;SDS011;28397;44.552;-0.848;2024-01-27T00:25:21;17.83;;;13.55;;
42742;SDS011;28397;44.552;-0.848;2024-01-27T00:27:47;15.82;;;12.60;;
42742;SDS011;28397;44.552;-0.848;2024-01-27T00:30:12;14.73;;;11.07;;
42742;SDS011;28397;44.552;-0.848;2024-01-27T00:32:38;15.65;;;11.95;;
42742;SDS011;28397;44.552;-0.848;2024-01-27T00:35:04;13.00;;;11.00;;
42742;SDS011;28397;44.552;-0.848;2024-01-27T00:37:30;13.95;;;11.23;;
42742;SDS011;28397;44.552;-0.848;2024-01-27T00:39:56;12.98;;;10.70;;
42742;SDS011;28397;44.552;-0.848;2024-01-27T00:42:21;14.77;;;10.57;;
42742;SDS011;28397;44.552;-0.848;2024-01-27T00:44:49;13.13;;;9.85;;
42742;SDS011;28397;44.552;-0.848;2024-01-27T00:47:15;11.82;;;10.20;;
42742;SDS011;28397;44.552;-0.848;2024-01-27T00:49:41;14.80;;;9.43;;
42742;SDS011;28397;44.552;-0.848;2024-01-27T00:52:06;11.20;;;9.45;;
42742;SDS011;28397;44.552;-0.848;2024-01-27T00:54:32;12.07;;;9.75;;
42742;SDS011;28397;44.552;-0.848;2024-01-27T00:56:58;12.02;;;10.15;;
42742;SDS011;28397;44.552;-0.848;2024-01-27T00:59:23;12.35;;;9.93;;
42742;SDS011;28397;44.552;-0.848;2024-01-27T01:01:49;10.43;;;9.38;;
42742;SDS011;28397;44.552;-0.848;2024-01-27T01:04:14;11.25;;;9.73;;
42742;SDS011;28397;44.552;-0.848;2024-01-27T01:06:40;11.88;;;10.15;;
42742;SDS011;28397;44.552;-0.848;2024-01-27T01:09:06;11.82;;;10.30;;
42742;SDS011;28397;44.552;-0.848;2024-01-27T01:11:31;11.55;;;10.23;;
42742;SDS011;28397;44.552;-0.848;2024-01-27T01:13:57;12.20;;;10.65;;
42742;SDS011;28397;44.552;-0.848;2024-01-27T01:16:23;12.45;;;11.07;;
42742;SDS011;28397;44.552;-0.848;2024-01-27T01:18:48;13.25;;;11.15;;
42742;SDS011;28397;44.552;-0.848;2024-01-27T01:21:14;13.73;;;11.00;;
42742;SDS011;28397;44.552;-0.848;2024-01-27T01:23:40;13.15;;;11.10;;
42742;SDS011;28397;44.552;-0.848;2024-01-27T01:26:06;13.68;;;10.98;;
42742;SDS011;28397;44.552;-0.848;2024-01-27T01:28:31;13.38;;;11.30;;
42742;SDS011;28397;44.552;-0.848;2024-01-27T01:30:57;14.73;;;10.82;;
42742;SDS011;28397;44.552;-0.848;2024-01-27T01:33:22;14.65;;;11.30;;
42742;SDS011;28397;44.552;-0.848;2024-01-27T01:35:48;12.65;;;10.70;;
42742;SDS011;28397;44.552;-0.848;2024-01-27T01:38:14;13.57;;;10.63;;
42742;SDS011;28397;44.552;-0.848;2024-01-27T01:40:39;10.63;;;9.52;;
42742;SDS011;28397;44.552;-0.848;2024-01-27T01:43:11;10.85;;;9.75;;
42742;SDS011;28397;44.552;-0.848;2024-01-27T01:45:37;14.38;;;10.07;;
42742;SDS011;28397;44.552;-0.848;2024-01-27T01:48:03;13.52;;;10.20;;
42742;SDS011;28397;44.552;-0.848;2024-01-27T01:50:29;14.07;;;9.82;;
42742;SDS011;28397;44.552;-0.848;2024-01-27T01:52:55;12.98;;;10.32;;
42742;SDS011;28397;44.552;-0.848;2024-01-27T01:55:21;11.40;;;10.00;;
42742;SDS011;28397;44.552;-0.848;2024-01-27T01:57:47;11.85;;;10.10;;
42742;SDS011;28397;44.552;-0.848;2024-01-27T02:00:14;11.68;;;10.18;;
42742;SDS011;28397;44.552;-0.848;2024-01-27T02:02:40;13.15;;;10.25;;
42742;SDS011;28397;44.552;-0.848;2024-01-27T02:05:07;14.60;;;10.40;;
42742;SDS011;28397;44.552;-0.848;2024-01-27T02:07:35;13.45;;;10.30;;
42742;SDS011;28397;44.552;-0.848;2024-01-27T02:10:01;13.38;;;10.90;;
42742;SDS011;28397;44.552;-0.848;2024-01-27T02:12:27;12.18;;;11.00;;
42742;SDS011;28397;44.552;-0.848;2024-01-27T02:14:52;13.23;;;11.50;;
42742;SDS011;28397;44.552;-0.848;2024-01-27T02:17:18;13.02;;;10.93;;
42742;SDS011;28397;44.552;-0.848;2024-01-27T02:19:44;16.05;;;12.32;;
42742;SDS011;28397;44.552;-0.848;2024-01-27T02:22:09;12.73;;;11.38;;
42742;SDS011;28397;44.552;-0.848;2024-01-27T02:24:35;14.05;;;12.55;;
42742;SDS011;28397;44.552;-0.848;2024-01-27T02:27:00;15.60;;;13.52;;
42742;SDS011;28397;44.552;-0.848;2024-01-27T02:29:26;15.25;;;12.55;;
42742;SDS011;28397;44.552;-0.848;2024-01-27T02:31:53;15.63;;;12.27;;
42742;SDS011;28397;44.552;-0.848;2024-01-27T02:34:19;14.00;;;12.50;;
42742;SDS011;28397;44.552;-0.848;2024-01-27T02:36:45;14.27;;;12.90;;
42742;SDS011;28397;44.552;-0.848;2024-01-27T02:39:10;15.30;;;13.32;;
42742;SDS011;28397;44.552;-0.848;2024-01-27T02:41:36;15.10;;;13.50;;
42742;SDS011;28397;44.552;-0.848;2024-01-27T02:44:04;14.90;;;13.40;;
42742;SDS011;28397;44.552;-0.848;2024-01-27T02:46:30;15.15;;;13.75;;
42742;SDS011;28397;44.552;-0.848;2024-01-27T02:48:56;17.17;;;13.60;;
42742;SDS011;28397;44.552;-0.848;2024-01-27T02:51:21;15.50;;;13.85;;
42742;SDS011;28397;44.552;-0.848;2024-01-27T02:53:47;16.45;;;14.63;;
42742;SDS011;28397;44.552;-0.848;2024-01-27T02:56:13;15.60;;;13.90;;
42742;SDS011;28397;44.552;-0.848;2024-01-27T02:58:40;15.43;;;13.90;;
42742;SDS011;28397;44.552;-0.848;2024-01-27T03:01:06;16.35;;;14.75;;
42742;SDS011;28397;44.552;-0.848;2024-01-27T03:03:32;15.65;;;13.98;;
42742;SDS011;28397;44.552;-0.848;2024-01-27T03:05:57;15.80;;;14.20;;
42742;SDS011;28397;44.552;-0.848;2024-01-27T03:08:23;17.00;;;15.18;;
42742;SDS011;28397;44.552;-0.848;2024-01-27T03:10:49;16.42;;;14.82;;
42742;SDS011;28397;44.552;-0.848;2024-01-27T03:13:15;17.63;;;14.25;;
42742;SDS011;28397;44.552;-0.848;2024-01-27T03:15:41;16.13;;;14.50;;
42742;SDS011;28397;44.552;-0.848;2024-01-27T03:18:08;15.93;;;14.35;;
42742;SDS011;28397;44.552;-0.848;2024-01-27T03:20:33;17.73;;;14.73;;
42742;SDS011;28397;44.552;-0.848;2024-01-27T03:22:59;15.50;;;14.02;;
42742;SDS011;28397;44.552;-0.848;2024-01-27T03:25:25;15.77;;;14.27;;
42742;SDS011;28397;44.552;-0.848;2024-01-27T03:27:51;16.23;;;14.52;;
42742;SDS011;28397;44.552;-0.848;2024-01-27T03:30:17;17.08;;;15.15;;
42742;SDS011;28397;44.552;-0.848;2024-01-27T03:32:42;16.05;;;14.30;;
42742;SDS011;28397;44.552;-0.848;2024-01-27T03:35:08;15.82;;;14.23;;
42742;SDS011;28397;44.552;-0.848;2024-01-27T03:37:34;17.83;;;14.57;;
42742;SDS011;28397;44.552;-0.848;2024-01-27T03:40:00;16.88;;;15.02;;
42742;SDS011;28397;44.552;-0.848;2024-01-27T03:42:26;17.98;;;16.08;;
42742;SDS011;28397;44.552;-0.848;2024-01-27T03:44:52;18.80;;;16.88;;
42742;SDS011;28397;44.552;-0.848;2024-01-27T03:47:17;19.20;;;17.38;;
42742;SDS011;28397;44.552;-0.848;2024-01-27T03:49:43;20.58;;;17.85;;
42742;SDS011;28397;44.552;-0.848;2024-01-27T03:52:09;19.65;;;17.75;;
42742;SDS011;28397;44.552;-0.848;2024-01-27T03:54:37;20.88;;;18.15;;
42742;SDS011;28397;44.552;-0.848;2024-01-27T03:57:03;18.98;;;17.05;;
42742;SDS011;28397;44.552;-0.848;2024-01-27T03:59:29;21.02;;;18.80;;
42742;SDS011;28397;44.552;-0.848;2024-01-27T04:01:54;20.00;;;17.80;;
42742;SDS011;28397;44.552;-0.848;2024-01-27T04:04:20;20.42;;;18.15;;
42742;SDS011;28397;44.552;-0.848;2024-01-27T04:06:46;21.25;;;17.83;;
42742;SDS011;28397;44.552;-0.848;2024-01-27T04:09:12;20.33;;;18.17;;
42742;SDS011;28397;44.552;-0.848;2024-01-27T04:11:38;19.13;;;17.10;;
42742;SDS011;28397;44.552;-0.848;2024-01-27T04:14:05;19.42;;;17.17;;
42742;SDS011;28397;44.552;-0.848;2024-01-27T04:16:32;19.92;;;18.02;;
42742;SDS011;28397;44.552;-0.848;2024-01-27T04:18:57;22.08;;;19.67;;
42742;SDS011;28397;44.552;-0.848;2024-01-27T04:21:23;23.67;;;20.85;;
42742;SDS011;28397;44.552;-0.848;2024-01-27T04:23:49;22.90;;;20.70;;
42742;SDS011;28397;44.552;-0.848;2024-01-27T04:26:14;21.55;;;19.50;;
42742;SDS011;28397;44.552;-0.848;2024-01-27T04:28:40;19.88;;;17.65;;
42742;SDS011;28397;44.552;-0.848;2024-01-27T04:31:06;18.98;;;16.27;;
42742;SDS011;28397;44.552;-0.848;2024-01-27T04:33:32;17.08;;;15.48;;
42742;SDS011;28397;44.552;-0.848;2024-01-27T04:35:57;17.13;;;15.32;;
42742;SDS011;28397;44.552;-0.848;2024-01-27T04:38:23;17.67;;;15.77;;
42742;SDS011;28397;44.552;-0.848;2024-01-27T04:40:49;17.42;;;15.65;;
42742;SDS011;28397;44.552;-0.848;2024-01-27T04:43:18;17.92;;;16.10;;
42742;SDS011;28397;44.552;-0.848;2024-01-27T04:45:45;16.60;;;14.63;;
42742;SDS011;28397;44.552;-0.848;2024-01-27T04:48:12;18.00;;;15.45;;
42742;SDS011;28397;44.552;-0.848;2024-01-27T04:50:38;16.95;;;15.15;;
42742;SDS011;28397;44.552;-0.848;2024-01-27T04:53:03;16.98;;;15.18;;
42742;SDS011;28397;44.552;-0.848;2024-01-27T04:55:29;17.10;;;15.40;;
42742;SDS011;28397;44.552;-0.848;2024-01-27T04:57:55;18.25;;;15.20;;
42742;SDS011;28397;44.552;-0.848;2024-01-27T05:00:21;19.10;;;17.10;;
42742;SDS011;28397;44.552;-0.848;2024-01-27T05:02:46;19.05;;;16.48;;
42742;SDS011;28397;44.552;-0.848;2024-01-27T05:05:12;21.10;;;17.55;;
42742;SDS011;28397;44.552;-0.848;2024-01-27T05:07:38;20.73;;;17.35;;
42742;SDS011;28397;44.552;-0.848;2024-01-27T05:10:04;19.00;;;16.70;;
42742;SDS011;28397;44.552;-0.848;2024-01-27T05:12:30;17.80;;;15.98;;
42742;SDS011;28397;44.552;-0.848;2024-01-27T05:14:56;16.95;;;15.27;;
42742;SDS011;28397;44.552;-0.848;2024-01-27T05:17:22;16.88;;;15.15;;
42742;SDS011;28397;44.552;-0.848;2024-01-27T05:19:49;16.90;;;15.35;;
42742;SDS011;28397;44.552;-0.848;2024-01-27T05:22:15;16.30;;;14.63;;
42742;SDS011;28397;44.552;-0.848;2024-01-27T05:24:40;16.92;;;15.32;;
42742;SDS011;28397;44.552;-0.848;2024-01-27T05:27:06;16.85;;;15.25;;
42742;SDS011;28397;44.552;-0.848;2024-01-27T05:29:32;17.55;;;15.75;;
42742;SDS011;28397;44.552;-0.848;2024-01-27T05:31:57;18.80;;;16.80;;
42742;SDS011;28397;44.552;-0.848;2024-01-27T05:34:23;19.08;;;17.17;;
42742;SDS011;28397;44.552;-0.848;2024-01-27T05:36:49;20.70;;;18.52;;
42742;SDS011;28397;44.552;-0.848;2024-01-27T05:39:14;20.35;;;18.25;;
42742;SDS011;28397;44.552;-0.848;2024-01-27T05:41:40;21.55;;;19.33;;
42742;SDS011;28397;44.552;-0.848;2024-01-27T05:44:06;22.92;;;19.80;;
42742;SDS011;28397;44.552;-0.848;2024-01-27T05:46:31;23.35;;;20.25;;
42742;SDS011;28397;44.552;-0.848;2024-01-27T05:48:57;23.35;;;19.80;;
42742;SDS011;28397;44.552;-0.848;2024-01-27T05:51:27;22.05;;;18.60;;
42742;SDS011;28397;44.552;-0.848;2024-01-27T05:53:55;20.50;;;17.85;;
42742;SDS011;28397;44.552;-0.848;2024-01-27T05:56:20;19.48;;;17.40;;
42742;SDS011;28397;44.552;-0.848;2024-01-27T05:58:46;19.58;;;17.58;;
42742;SDS011;28397;44.552;-0.848;2024-01-27T06:01:12;19.30;;;17.40;;
42742;SDS011;28397;44.552;-0.848;2024-01-27T06:03:38;20.25;;;17.80;;
42742;SDS011;28397;44.552;-0.848;2024-01-27T06:06:07;17.88;;;16.13;;
42742;SDS011;28397;44.552;-0.848;2024-01-27T06:08:32;18.48;;;16.50;;
42742;SDS011;28397;44.552;-0.848;2024-01-27T06:10:58;20.95;;;17.02;;
42742;SDS011;28397;44.552;-0.848;2024-01-27T06:13:24;18.83;;;16.85;;
42742;SDS011;28397;44.552;-0.848;2024-01-27T06:15:49;19.65;;;17.65;;
42742;SDS011;28397;44.552;-0.848;2024-01-27T06:18:15;19.38;;;17.48;;
42742;SDS011;28397;44.552;-0.848;2024-01-27T06:20:41;21.90;;;18.83;;
42742;SDS011;28397;44.552;-0.848;2024-01-27T06:23:07;21.80;;;19.42;;
42742;SDS011;28397;44.552;-0.848;2024-01-27T06:25:33;20.85;;;18.73;;
42742;SDS011;28397;44.552;-0.848;2024-01-27T06:27:59;21.17;;;19.05;;
42742;SDS011;28397;44.552;-0.848;2024-01-27T06:30:25;21.02;;;17.60;;
42742;SDS011;28397;44.552;-0.848;2024-01-27T06:32:51;20.95;;;18.67;;
42742;SDS011;28397;44.552;-0.848;2024-01-27T06:35:16;22.63;;;20.20;;
42742;SDS011;28397;44.552;-0.848;2024-01-27T06:37:42;22.55;;;20.13;;
42742;SDS011;28397;44.552;-0.848;2024-01-27T06:40:08;24.35;;;20.65;;
42742;SDS011;28397;44.552;-0.848;2024-01-27T06:42:34;23.90;;;21.00;;
42742;SDS011;28397;44.552;-0.848;2024-01-27T06:45:00;22.52;;;20.10;;
42742;SDS011;28397;44.552;-0.848;2024-01-27T06:47:26;22.10;;;19.70;;
42742;SDS011;28397;44.552;-0.848;2024-01-27T06:49:52;21.95;;;19.63;;
42742;SDS011;28397;44.552;-0.848;2024-01-27T06:52:17;21.98;;;19.77;;
42742;SDS011;28397;44.552;-0.848;2024-01-27T06:54:43;21.15;;;18.95;;
42742;SDS011;28397;44.552;-0.848;2024-01-27T06:57:22;20.08;;;17.73;;
42742;SDS011;28397;44.552;-0.848;2024-01-27T06:59:48;19.60;;;17.50;;
42742;SDS011;28397;44.552;-0.848;2024-01-27T07:02:18;17.30;;;15.70;;
42742;SDS011;28397;44.552;-0.848;2024-01-27T07:04:47;15.48;;;13.98;;
42742;SDS011;28397;44.552;-0.848;2024-01-27T07:07:13;15.02;;;13.63;;
42742;SDS011;28397;44.552;-0.848;2024-01-27T07:09:39;13.07;;;11.88;;
42742;SDS011;28397;44.552;-0.848;2024-01-27T07:12:04;11.18;;;10.05;;
42742;SDS011;28397;44.552;-0.848;2024-01-27T07:14:30;9.00;;;8.10;;
42742;SDS011;28397;44.552;-0.848;2024-01-27T07:16:56;8.13;;;7.38;;
42742;SDS011;28397;44.552;-0.848;2024-01-27T07:19:22;8.57;;;7.68;;
42742;SDS011;28397;44.552;-0.848;2024-01-27T07:21:48;7.95;;;7.25;;
42742;SDS011;28397;44.552;-0.848;2024-01-27T07:24:13;8.27;;;7.20;;
42742;SDS011;28397;44.552;-0.848;2024-01-27T07:26:39;8.43;;;7.47;;
42742;SDS011;28397;44.552;-0.848;2024-01-27T07:29:05;10.00;;;8.07;;
42742;SDS011;28397;44.552;-0.848;2024-01-27T07:31:30;9.65;;;8.20;;
42742;SDS011;28397;44.552;-0.848;2024-01-27T07:33:56;10.15;;;9.13;;
42742;SDS011;28397;44.552;-0.848;2024-01-27T07:36:21;10.45;;;9.00;;
42742;SDS011;28397;44.552;-0.848;2024-01-27T07:38:47;11.55;;;10.07;;
42742;SDS011;28397;44.552;-0.848;2024-01-27T07:41:13;11.98;;;10.55;;
42742;SDS011;28397;44.552;-0.848;2024-01-27T07:43:38;11.50;;;10.30;;
42742;SDS011;28397;44.552;-0.848;2024-01-27T07:46:04;13.10;;;11.70;;
42742;SDS011;28397;44.552;-0.848;2024-01-27T07:48:30;14.07;;;12.55;;
42742;SDS011;28397;44.552;-0.848;2024-01-27T07:50:56;16.27;;;13.10;;
42742;SDS011;28397;44.552;-0.848;2024-01-27T07:53:22;14.45;;;12.93;;
42742;SDS011;28397;44.552;-0.848;2024-01-27T07:55:48;14.48;;;12.98;;
42742;SDS011;28397;44.552;-0.848;2024-01-27T07:58:15;13.80;;;12.30;;
42742;SDS011;28397;44.552;-0.848;2024-01-27T08:00:41;15.68;;;12.25;;
42742;SDS011;28397;44.552;-0.848;2024-01-27T08:03:07;15.90;;;13.02;;
42742;SDS011;28397;44.552;-0.848;2024-01-27T08:05:32;15.23;;;13.32;;
42742;SDS011;28397;44.552;-0.848;2024-01-27T08:07:58;15.88;;;14.10;;
42742;SDS011;28397;44.552;-0.848;2024-01-27T08:10:24;15.05;;;13.45;;
42742;SDS011;28397;44.552;-0.848;2024-01-27T08:12:49;16.88;;;13.10;;
42742;SDS011;28397;44.552;-0.848;2024-01-27T08:15:15;13.88;;;12.00;;
42742;SDS011;28397;44.552;-0.848;2024-01-27T08:17:40;13.13;;;11.82;;
42742;SDS011;28397;44.552;-0.848;2024-01-27T08:20:06;13.05;;;11.70;;
42742;SDS011;28397;44.552;-0.848;2024-01-27T08:22:33;12.27;;;11.18;;
42742;SDS011;28397;44.552;-0.848;2024-01-27T08:24:59;12.48;;;11.18;;
42742;SDS011;28397;44.552;-0.848;2024-01-27T08:27:25;12.07;;;10.80;;
42742;SDS011;28397;44.552;-0.848;2024-01-27T08:29:50;11.65;;;9.98;;
42742;SDS011;28397;44.552;-0.848;2024-01-27T08:32:16;10.30;;;9.30;;
42742;SDS011;28397;44.552;-0.848;2024-01-27T08:34:42;10.70;;;9.10;;
42742;SDS011;28397;44.552;-0.848;2024-01-27T08:37:18;16.52;;;9.70;;
42742;SDS011;28397;44.552;-0.848;2024-01-27T08:39:44;11.10;;;8.52;;
42742;SDS011;28397;44.552;-0.848;2024-01-27T08:42:11;7.00;;;6.30;;
42742;SDS011;28397;44.552;-0.848;2024-01-27T08:44:39;7.10;;;6.40;;
42742;SDS011;28397;44.552;-0.848;2024-01-27T08:47:05;7.00;;;6.30;;
42742;SDS011;28397;44.552;-0.848;2024-01-27T08:49:31;7.00;;;6.30;;
42742;SDS011;28397;44.552;-0.848;2024-01-27T08:51:56;9.07;;;8.18;;
42742;SDS011;28397;44.552;-0.848;2024-01-27T08:54:22;8.52;;;7.72;;
42742;SDS011;28397;44.552;-0.848;2024-01-27T08:56:48;9.18;;;8.38;;
42742;SDS011;28397;44.552;-0.848;2024-01-27T08:59:14;10.43;;;9.52;;
42742;SDS011;28397;44.552;-0.848;2024-01-27T09:01:39;10.10;;;9.20;;
42742;SDS011;28397;44.552;-0.848;2024-01-27T09:04:05;11.63;;;10.52;;
42742;SDS011;28397;44.552;-0.848;2024-01-27T09:06:31;11.68;;;10.68;;
42742;SDS011;28397;44.552;-0.848;2024-01-27T09:08:56;12.23;;;11.13;;
42742;SDS011;28397;44.552;-0.848;2024-01-27T09:11:22;12.95;;;11.65;;
42742;SDS011;28397;44.552;-0.848;2024-01-27T09:13:48;12.98;;;11.73;;
42742;SDS011;28397;44.552;-0.848;2024-01-27T09:16:16;12.73;;;10.48;;
42742;SDS011;28397;44.552;-0.848;2024-01-27T09:18:43;11.77;;;10.40;;
42742;SDS011;28397;44.552;-0.848;2024-01-27T09:21:08;10.40;;;9.40;;
42742;SDS011;28397;44.552;-0.848;2024-01-27T09:23:34;10.80;;;9.70;;
42742;SDS011;28397;44.552;-0.848;2024-01-27T09:26:01;10.63;;;9.48;;
42742;SDS011;28397;44.552;-0.848;2024-01-27T09:28:26;9.63;;;8.73;;
42742;SDS011;28397;44.552;-0.848;2024-01-27T09:30:52;10.02;;;9.02;;
42742;SDS011;28397;44.552;-0.848;2024-01-27T09:33:18;10.05;;;9.05;;
42742;SDS011;28397;44.552;-0.848;2024-01-27T09:35:45;11.48;;;10.27;;
42742;SDS011;28397;44.552;-0.848;2024-01-27T09:38:11;12.00;;;10.35;;
42742;SDS011;28397;44.552;-0.848;2024-01-27T09:40:39;12.45;;;10.65;;
42742;SDS011;28397;44.552;-0.848;2024-01-27T09:43:05;12.00;;;10.60;;
42742;SDS011;28397;44.552;-0.848;2024-01-27T09:45:31;12.25;;;10.50;;
42742;SDS011;28397;44.552;-0.848;2024-01-27T09:47:57;11.82;;;9.57;;
42742;SDS011;28397;44.552;-0.848;2024-01-27T09:50:25;10.15;;;8.88;;
42742;SDS011;28397;44.552;-0.848;2024-01-27T09:52:52;9.90;;;8.88;;
42742;SDS011;28397;44.552;-0.848;2024-01-27T09:55:18;10.20;;;9.25;;
42742;SDS011;28397;44.552;-0.848;2024-01-27T09:57:44;10.80;;;9.73;;
42742;SDS011;28397;44.552;-0.848;2024-01-27T10:00:11;10.40;;;9.30;;
42742;SDS011;28397;44.552;-0.848;2024-01-27T10:02:39;10.55;;;9.55;;
42742;SDS011;28397;44.552;-0.848;2024-01-27T10:05:07;11.25;;;9.57;;
42742;SDS011;28397;44.552;-0.848;2024-01-27T10:07:34;11.05;;;9.95;;
42742;SDS011;28397;44.552;-0.848;2024-01-27T10:09:59;10.23;;;9.13;;
42742;SDS011;28397;44.552;-0.848;2024-01-27T10:12:25;8.70;;;7.80;;
42742;SDS011;28397;44.552;-0.848;2024-01-27T10:14:53;9.48;;;8.35;;
42742;SDS011;28397;44.552;-0.848;2024-01-27T10:17:22;8.30;;;7.50;;
42742;SDS011;28397;44.552;-0.848;2024-01-27T10:19:58;8.30;;;7.50;;
42742;SDS011;28397;44.552;-0.848;2024-01-27T10:22:38;9.05;;;8.15;;
42742;SDS011;28397;44.552;-0.848;2024-01-27T10:25:05;9.02;;;8.23;;
42742;SDS011;28397;44.552;-0.848;2024-01-27T10:27:31;9.50;;;8.60;;
42742;SDS011;28397;44.552;-0.848;2024-01-27T10:29:57;9.43;;;8.30;;
42742;SDS011;28397;44.552;-0.848;2024-01-27T10:32:22;8.20;;;7.50;;
42742;SDS011;28397;44.552;-0.848;2024-01-27T10:34:49;7.65;;;6.95;;
42742;SDS011;28397;44.552;-0.848;2024-01-27T10:37:26;7.00;;;6.40;;
42742;SDS011;28397;44.552;-0.848;2024-01-27T10:39:58;7.05;;;6.45;;
42742;SDS011;28397;44.552;-0.848;2024-01-27T10:42:26;6.90;;;6.38;;
42742;SDS011;28397;44.552;-0.848;2024-01-27T10:44:54;7.18;;;6.55;;
42742;SDS011;28397;44.552;-0.848;2024-01-27T10:47:27;6.57;;;5.97;;
42742;SDS011;28397;44.552;-0.848;2024-01-27T10:49:57;7.35;;;6.75;;
42742;SDS011;28397;44.552;-0.848;2024-01-27T10:52:24;7.85;;;7.10;;
42742;SDS011;28397;44.552;-0.848;2024-01-27T10:55:00;7.13;;;6.47;;
42742;SDS011;28397;44.552;-0.848;2024-01-27T10:57:32;6.25;;;5.75;;
42742;SDS011;28397;44.552;-0.848;2024-01-27T11:00:00;6.88;;;6.28;;
42742;SDS011;28397;44.552;-0.848;2024-01-27T11:02:30;6.15;;;5.65;;
42742;SDS011;28397;44.552;-0.848;2024-01-27T11:05:03;5.93;;;5.43;;
42742;SDS011;28397;44.552;-0.848;2024-01-27T11:07:33;5.72;;;5.22;;
42742;SDS011;28397;44.552;-0.848;2024-01-27T11:09:59;5.18;;;4.78;;
42742;SDS011;28397;44.552;-0.848;2024-01-27T11:12:25;4.93;;;4.53;;
42742;SDS011;28397;44.552;-0.848;2024-01-27T11:14:51;5.10;;;4.57;;
42742;SDS011;28397;44.552;-0.848;2024-01-27T11:17:18;5.07;;;4.57;;
42742;SDS011;28397;44.552;-0.848;2024-01-27T11:19:44;6.00;;;4.43;;
42742;SDS011;28397;44.552;-0.848;2024-01-27T11:22:23;5.63;;;5.10;;
42742;SDS011;28397;44.552;-0.848;2024-01-27T11:25:04;5.55;;;5.05;;
42742;SDS011;28397;44.552;-0.848;2024-01-27T11:27:39;4.80;;;4.40;;
42742;SDS011;28397;44.552;-0.848;2024-01-27T11:30:12;4.80;;;4.40;;
42742;SDS011;28397;44.552;-0.848;2024-01-27T11:32:56;5.30;;;4.80;;
42742;SDS011;28397;44.552;-0.848;2024-01-27T11:35:25;4.82;;;4.43;;
42742;SDS011;28397;44.552;-0.848;2024-01-27T11:37:51;6.35;;;4.97;;
42742;SDS011;28397;44.552;-0.848;2024-01-27T11:40:17;6.65;;;5.05;;
42742;SDS011;28397;44.552;-0.848;2024-01-27T11:42:43;5.82;;;5.32;;
42742;SDS011;28397;44.552;-0.848;2024-01-27T11:45:18;5.55;;;5.05;;
42742;SDS011;28397;44.552;-0.848;2024-01-27T11:47:44;5.93;;;4.70;;
42742;SDS011;28397;44.552;-0.848;2024-01-27T11:50:09;5.55;;;5.05;;
42742;SDS011;28397;44.552;-0.848;2024-01-27T11:52:36;5.63;;;5.13;;
42742;SDS011;28397;44.552;-0.848;2024-01-27T11:55:02;6.30;;;5.70;;
42742;SDS011;28397;44.552;-0.848;2024-01-27T11:57:28;8.70;;;5.80;;
42742;SDS011;28397;44.552;-0.848;2024-01-27T11:59:55;6.13;;;5.63;;
42742;SDS011;28397;44.552;-0.848;2024-01-27T12:02:21;6.20;;;5.70;;
42742;SDS011;28397;44.552;-0.848;2024-01-27T12:04:47;6.35;;;5.82;;
42742;SDS011;28397;44.552;-0.848;2024-01-27T12:07:16;6.55;;;6.03;;
42742;SDS011;28397;44.552;-0.848;2024-01-27T12:09:45;6.32;;;5.80;;
42742;SDS011;28397;44.552;-0.848;2024-01-27T12:12:12;6.22;;;5.70;;
42742;SDS011;28397;44.552;-0.848;2024-01-27T12:14:40;6.25;;;5.65;;
42742;SDS011;28397;44.552;-0.848;2024-01-27T12:17:08;6.53;;;5.93;;
42742;SDS011;28397;44.552;-0.848;2024-01-27T12:19:34;6.93;;;6.22;;
42742;SDS011;28397;44.552;-0.848;2024-01-27T12:22:01;6.30;;;5.70;;
42742;SDS011;28397;44.552;-0.848;2024-01-27T12:24:27;6.32;;;5.72;;
42742;SDS011;28397;44.552;-0.848;2024-01-27T12:26:52;5.90;;;5.40;;
42742;SDS011;28397;44.552;-0.848;2024-01-27T12:29:20;5.90;;;5.30;;
42742;SDS011;28397;44.552;-0.848;2024-01-27T12:31:46;5.90;;;5.40;;
42742;SDS011;28397;44.552;-0.848;2024-01-27T12:34:12;5.72;;;5.20;;
42742;SDS011;28397;44.552;-0.848;2024-01-27T12:36:44;5.38;;;4.88;;
42742;SDS011;28397;44.552;-0.848;2024-01-27T12:39:10;5.32;;;4.60;;
42742;SDS011;28397;44.552;-0.848;2024-01-27T12:41:35;5.40;;;4.90;;
42742;SDS011;28397;44.552;-0.848;2024-01-27T12:44:01;5.03;;;4.60;;
42742;SDS011;28397;44.552;-0.848;2024-01-27T12:46:28;4.68;;;4.28;;
42742;SDS011;28397;44.552;-0.848;2024-01-27T12:48:53;4.60;;;4.20;;
42742;SDS011;28397;44.552;-0.848;2024-01-27T12:51:19;4.57;;;4.18;;
42742;SDS011;28397;44.552;-0.848;2024-01-27T12:53:45;4.72;;;4.32;;
42742;SDS011;28397;44.552;-0.848;2024-01-27T12:56:12;4.60;;;4.20;;
42742;SDS011;28397;44.552;-0.848;2024-01-27T12:58:39;6.50;;;5.13;;
42742;SDS011;28397;44.552;-0.848;2024-01-27T13:01:06;5.25;;;4.57;;
42742;SDS011;28397;44.552;-0.848;2024-01-27T13:03:33;5.45;;;4.95;;
42742;SDS011;28397;44.552;-0.848;2024-01-27T13:05:58;5.88;;;5.03;;
42742;SDS011;28397;44.552;-0.848;2024-01-27T13:08:24;5.82;;;5.22;;
42742;SDS011;28397;44.552;-0.848;2024-01-27T13:10:50;4.90;;;4.50;;
42742;SDS011;28397;44.552;-0.848;2024-01-27T13:13:16;5.45;;;4.95;;
42742;SDS011;28397;44.552;-0.848;2024-01-27T13:15:42;5.13;;;4.63;;
42742;SDS011;28397;44.552;-0.848;2024-01-27T13:18:08;5.00;;;4.60;;
42742;SDS011;28397;44.552;-0.848;2024-01-27T13:20:35;5.25;;;4.75;;
42742;SDS011;28397;44.552;-0.848;2024-01-27T13:23:01;4.93;;;4.40;;
42742;SDS011;28397;44.552;-0.848;2024-01-27T13:25:27;5.15;;;4.65;;
42742;SDS011;28397;44.552;-0.848;2024-01-27T13:27:52;4.78;;;4.38;;
42742;SDS011;28397;44.552;-0.848;2024-01-27T13:30:18;5.43;;;4.90;;
42742;SDS011;28397;44.552;-0.848;2024-01-27T13:32:44;4.65;;;4.25;;
42742;SDS011;28397;44.552;-0.848;2024-01-27T13:35:09;4.25;;;3.95;;
42742;SDS011;28397;44.552;-0.848;2024-01-27T13:37:35;4.85;;;4.45;;
42742;SDS011;28397;44.552;-0.848;2024-01-27T13:40:04;4.78;;;4.38;;
42742;SDS011;28397;44.552;-0.848;2024-01-27T13:42:32;4.72;;;4.32;;
42742;SDS011;28397;44.552;-0.848;2024-01-27T13:44:58;4.90;;;4.40;;
42742;SDS011;28397;44.552;-0.848;2024-01-27T13:47:24;5.20;;;4.70;;
42742;SDS011;28397;44.552;-0.848;2024-01-27T13:49:49;6.10;;;5.50;;
42742;SDS011;28397;44.552;-0.848;2024-01-27T13:52:17;7.07;;;5.50;;
42742;SDS011;28397;44.552;-0.848;2024-01-27T13:54:43;9.68;;;6.50;;
42742;SDS011;28397;44.552;-0.848;2024-01-27T13:57:09;10.38;;;7.00;;
42742;SDS011;28397;44.552;-0.848;2024-01-27T13:59:35;7.25;;;6.40;;
42742;SDS011;28397;44.552;-0.848;2024-01-27T14:02:01;7.57;;;5.70;;
42742;SDS011;28397;44.552;-0.848;2024-01-27T14:04:26;7.88;;;5.85;;
42742;SDS011;28397;44.552;-0.848;2024-01-27T14:06:52;6.03;;;5.38;;
42742;SDS011;28397;44.552;-0.848;2024-01-27T14:09:24;5.50;;;5.00;;
42742;SDS011;28397;44.552;-0.848;2024-01-27T14:11:52;6.68;;;5.30;;
42742;SDS011;28397;44.552;-0.848;2024-01-27T14:14:17;5.28;;;4.78;;